sensor_id;sensor_type;location;lat;lon;timestamp;pressure;altitude;pressure_sealevel;temperature;humidity
35649;BME280;21768;48.562;13.414;2023-04-09T00:02:24;97959.28;;;7.65;66.23
35649;BME280;21768;48.562;13.414;2023-04-09T00:04:51;97953.50;;;7.66;66.45
35649;BME280;21768;48.562;13.414;2023-04-09T00:07:16;97951.09;;;7.68;66.53
35649;BME280;21768;48.562;13.414;2023-04-09T00:09:42;97944.22;;;7.65;66.57
35649;BME280;21768;48.562;13.414;2023-04-09T00:12:07;97958.53;;;7.66;66.62
35649;BME280;21768;48.562;13.414;2023-04-09T00:14:33;97944.22;;;7.65;66.87
35649;BME280;21768;48.562;13.414;2023-04-09T00:16:59;97940.81;;;7.65;66.56
35649;BME280;21768;48.562;13.414;2023-04-09T00:19:24;97938.19;;;7.63;66.80
35649;BME280;21768;48.562;13.414;2023-04-09T00:21:50;97952.25;;;7.61;66.73
35649;BME280;21768;48.562;13.414;2023-04-09T00:24:16;97946.47;;;7.62;66.57
35649;BME280;21768;48.562;13.414;2023-04-09T00:26:42;97954.75;;;7.61;66.63
35649;BME280;21768;48.562;13.414;2023-04-09T00:29:07;97948.09;;;7.62;66.95
35649;BME280;21768;48.562;13.414;2023-04-09T00:31:33;97951.63;;;7.64;66.68
35649;BME280;21768;48.562;13.414;2023-04-09T00:33:59;97945.19;;;7.67;66.72
35649;BME280;21768;48.562;13.414;2023-04-09T00:36:24;97948.72;;;7.69;66.50
35649;BME280;21768;48.562;13.414;2023-04-09T00:38:50;97950.47;;;7.70;66.32
35649;BME280;21768;48.562;13.414;2023-04-09T00:41:16;97946.97;;;7.68;66.51
35649;BME280;21768;48.562;13.414;2023-04-09T00:43:41;97957.88;;;7.69;66.54
35649;BME280;21768;48.562;13.414;2023-04-09T00:46:07;97946.97;;;7.68;66.62
35649;BME280;21768;48.562;13.414;2023-04-09T00:48:33;97945.19;;;7.67;66.67
35649;BME280;21768;48.562;13.414;2023-04-09T00:50:58;97950.22;;;7.67;66.62
35649;BME280;21768;48.562;13.414;2023-04-09T00:53:24;97944.84;;;7.73;66.53
35649;BME280;21768;48.562;13.414;2023-04-09T00:55:51;97953.66;;;7.78;66.16
35649;BME280;21768;48.562;13.414;2023-04-09T00:58:17;97948.00;;;7.80;66.20
35649;BME280;21768;48.562;13.414;2023-04-09T01:00:42;97942.47;;;7.74;66.71
35649;BME280;21768;48.562;13.414;2023-04-09T01:03:08;97942.47;;;7.74;66.96
35649;BME280;21768;48.562;13.414;2023-04-09T01:05:51;97951.50;;;7.72;66.80
35649;BME280;21768;48.562;13.414;2023-04-09T01:08:29;97953.75;;;7.69;66.91
35649;BME280;21768;48.562;13.414;2023-04-09T01:11:08;97955.16;;;7.66;66.94
35649;BME280;21768;48.562;13.414;2023-04-09T01:16:14;97955.25;;;7.57;67.49
35649;BME280;21768;48.562;13.414;2023-04-09T01:21:18;97953.34;;;7.55;67.51
35649;BME280;21768;48.562;13.414;2023-04-09T01:26:56;97956.59;;;7.54;67.55
35649;BME280;21768;48.562;13.414;2023-04-09T01:29:23;97958.22;;;7.53;67.60
35649;BME280;21768;48.562;13.414;2023-04-09T01:31:50;97957.47;;;7.54;67.67
35649;BME280;21768;48.562;13.414;2023-04-09T01:34:17;97963.53;;;7.56;67.54
35649;BME280;21768;48.562;13.414;2023-04-09T01:36:49;97957.47;;;7.54;67.64
35649;BME280;21768;48.562;13.414;2023-04-09T01:39:16;97960.59;;;7.51;67.71
35649;BME280;21768;48.562;13.414;2023-04-09T01:41:42;97962.25;;;7.51;67.89
35649;BME280;21768;48.562;13.414;2023-04-09T01:44:09;97964.00;;;7.52;67.79
35649;BME280;21768;48.562;13.414;2023-04-09T01:46:38;97956.59;;;7.54;67.73
35649;BME280;21768;48.562;13.414;2023-04-09T01:49:03;97958.09;;;7.51;67.47
35649;BME280;21768;48.562;13.414;2023-04-09T01:51:31;97952.81;;;7.48;67.81
35649;BME280;21768;48.562;13.414;2023-04-09T01:53:59;97942.63;;;7.47;67.84
35649;BME280;21768;48.562;13.414;2023-04-09T01:56:24;97934.84;;;7.44;67.89
35649;BME280;21768;48.562;13.414;2023-04-09T01:58:50;97933.47;;;7.37;67.54
35649;BME280;21768;48.562;13.414;2023-04-09T02:01:26;97937.34;;;7.34;67.90
35649;BME280;21768;48.562;13.414;2023-04-09T02:03:57;97940.25;;;7.38;67.63
35649;BME280;21768;48.562;13.414;2023-04-09T02:09:07;97941.41;;;7.42;67.83
35649;BME280;21768;48.562;13.414;2023-04-09T02:11:37;97938.47;;;7.37;67.87
35649;BME280;21768;48.562;13.414;2023-04-09T02:14:05;97946.75;;;7.36;67.91
35649;BME280;21768;48.562;13.414;2023-04-09T02:16:33;97952.41;;;7.34;68.01
35649;BME280;21768;48.562;13.414;2023-04-09T02:18:58;97951.03;;;7.37;68.30
35649;BME280;21768;48.562;13.414;2023-04-09T02:21:28;97949.41;;;7.38;67.95
35649;BME280;21768;48.562;13.414;2023-04-09T02:23:56;97960.06;;;7.35;68.48
35649;BME280;21768;48.562;13.414;2023-04-09T02:26:22;97959.56;;;7.39;68.14
35649;BME280;21768;48.562;13.414;2023-04-09T02:28:48;97964.19;;;7.35;68.09
35649;BME280;21768;48.562;13.414;2023-04-09T02:31:14;97955.66;;;7.33;68.38
35649;BME280;21768;48.562;13.414;2023-04-09T02:33:39;97954.16;;;7.35;68.40
35649;BME280;21768;48.562;13.414;2023-04-09T02:36:05;97952.94;;;7.40;68.24
35649;BME280;21768;48.562;13.414;2023-04-09T02:38:31;97954.69;;;7.41;68.24
35649;BME280;21768;48.562;13.414;2023-04-09T02:40:57;97938.63;;;7.39;68.35
35649;BME280;21768;48.562;13.414;2023-04-09T02:43:22;97954.44;;;7.38;68.46
35649;BME280;21768;48.562;13.414;2023-04-09T02:45:48;97951.44;;;7.42;68.59
35649;BME280;21768;48.562;13.414;2023-04-09T02:48:13;97951.53;;;7.43;68.57
35649;BME280;21768;48.562;13.414;2023-04-09T02:50:39;97955.81;;;7.44;68.62
35649;BME280;21768;48.562;13.414;2023-04-09T02:53:04;97952.41;;;7.44;68.81
35649;BME280;21768;48.562;13.414;2023-04-09T02:55:30;97948.13;;;7.43;69.08
35649;BME280;21768;48.562;13.414;2023-04-09T02:57:56;97944.75;;;7.42;69.17
35649;BME280;21768;48.562;13.414;2023-04-09T03:00:21;97946.28;;;7.40;68.90
35649;BME280;21768;48.562;13.414;2023-04-09T03:02:47;97943.91;;;7.42;68.97
35649;BME280;21768;48.562;13.414;2023-04-09T03:05:12;97944.88;;;7.44;69.05
35649;BME280;21768;48.562;13.414;2023-04-09T03:07:38;97943.66;;;7.49;69.15
35649;BME280;21768;48.562;13.414;2023-04-09T03:10:04;97945.28;;;7.48;68.95
35649;BME280;21768;48.562;13.414;2023-04-09T03:12:29;97948.53;;;7.47;69.24
35649;BME280;21768;48.562;13.414;2023-04-09T03:14:55;97941.88;;;7.48;69.28
35649;BME280;21768;48.562;13.414;2023-04-09T03:17:21;97949.69;;;7.51;69.29
35649;BME280;21768;48.562;13.414;2023-04-09T03:19:50;97941.53;;;7.54;69.09
35649;BME280;21768;48.562;13.414;2023-04-09T03:22:15;97935.91;;;7.56;68.92
35649;BME280;21768;48.562;13.414;2023-04-09T03:24:40;97929.72;;;7.53;68.58
35649;BME280;21768;48.562;13.414;2023-04-09T03:27:06;97935.09;;;7.47;69.10
35649;BME280;21768;48.562;13.414;2023-04-09T03:29:31;97939.88;;;7.44;69.21
35649;BME280;21768;48.562;13.414;2023-04-09T03:31:57;97927.19;;;7.42;69.30
35649;BME280;21768;48.562;13.414;2023-04-09T03:34:22;97930.56;;;7.43;69.56
35649;BME280;21768;48.562;13.414;2023-04-09T03:36:48;97931.09;;;7.39;69.60
35649;BME280;21768;48.562;13.414;2023-04-09T03:39:14;97926.81;;;7.38;69.79
35649;BME280;21768;48.562;13.414;2023-04-09T03:41:40;97920.03;;;7.37;69.79
35649;BME280;21768;48.562;13.414;2023-04-09T03:44:05;97920.78;;;7.36;69.96
35649;BME280;21768;48.562;13.414;2023-04-09T03:46:31;97909.34;;;7.29;69.94
35649;BME280;21768;48.562;13.414;2023-04-09T03:48:56;97914.69;;;7.24;70.02
35649;BME280;21768;48.562;13.414;2023-04-09T03:51:22;97917.97;;;7.23;69.78
35649;BME280;21768;48.562;13.414;2023-04-09T03:53:47;97915.44;;;7.23;69.74
35649;BME280;21768;48.562;13.414;2023-04-09T03:56:13;97914.69;;;7.24;70.09
35649;BME280;21768;48.562;13.414;2023-04-09T03:58:38;97919.44;;;7.21;69.76
35649;BME280;21768;48.562;13.414;2023-04-09T04:01:04;97916.81;;;7.19;69.91
35649;BME280;21768;48.562;13.414;2023-04-09T04:03:30;97920.34;;;7.21;69.83
35649;BME280;21768;48.562;13.414;2023-04-09T04:06:00;97920.59;;;7.24;69.97
35649;BME280;21768;48.562;13.414;2023-04-09T04:08:26;97919.09;;;7.26;69.81
35649;BME280;21768;48.562;13.414;2023-04-09T04:10:52;97918.84;;;7.23;69.99
35649;BME280;21768;48.562;13.414;2023-04-09T04:13:18;97917.69;;;7.20;69.92
35649;BME280;21768;48.562;13.414;2023-04-09T04:15:44;97922.56;;;7.18;69.84
35649;BME280;21768;48.562;13.414;2023-04-09T04:18:09;97925.34;;;7.21;69.75
35649;BME280;21768;48.562;13.414;2023-04-09T04:20:36;97925.47;;;7.12;69.79
35649;BME280;21768;48.562;13.414;2023-04-09T04:23:02;97928.66;;;7.01;70.03
35649;BME280;21768;48.562;13.414;2023-04-09T04:25:28;97927.63;;;6.99;69.96
35649;BME280;21768;48.562;13.414;2023-04-09T04:27:53;97932.03;;;7.02;70.12
35649;BME280;21768;48.562;13.414;2023-04-09T04:30:20;97926.63;;;6.97;70.10
35649;BME280;21768;48.562;13.414;2023-04-09T04:32:46;97933.28;;;6.97;70.28
35649;BME280;21768;48.562;13.414;2023-04-09T04:35:12;97932.03;;;7.02;70.84
35649;BME280;21768;48.562;13.414;2023-04-09T04:37:39;97931.56;;;7.06;70.58
35649;BME280;21768;48.562;13.414;2023-04-09T04:40:06;97939.63;;;7.12;70.59
35649;BME280;21768;48.562;13.414;2023-04-09T04:42:32;97943.16;;;7.14;70.50
35649;BME280;21768;48.562;13.414;2023-04-09T04:44:58;97945.81;;;7.15;70.51
35649;BME280;21768;48.562;13.414;2023-04-09T04:47:23;97944.19;;;7.16;70.47
35649;BME280;21768;48.562;13.414;2023-04-09T04:49:49;97943.66;;;7.20;70.38
35649;BME280;21768;48.562;13.414;2023-04-09T04:52:14;97942.16;;;7.22;70.29
35649;BME280;21768;48.562;13.414;2023-04-09T04:54:39;97935.78;;;7.26;70.59
35649;BME280;21768;48.562;13.414;2023-04-09T04:57:05;97945.34;;;7.30;70.51
35649;BME280;21768;48.562;13.414;2023-04-09T04:59:32;97941.34;;;7.32;70.63
35649;BME280;21768;48.562;13.414;2023-04-09T05:01:57;97951.66;;;7.35;70.86
35649;BME280;21768;48.562;13.414;2023-04-09T05:04:23;97946.16;;;7.39;70.82
35649;BME280;21768;48.562;13.414;2023-04-09T05:06:48;97941.13;;;7.39;70.79
35649;BME280;21768;48.562;13.414;2023-04-09T05:09:14;97953.06;;;7.41;70.90
35649;BME280;21768;48.562;13.414;2023-04-09T05:11:41;97960.97;;;7.46;70.75
35649;BME280;21768;48.562;13.414;2023-04-09T05:14:06;97951.06;;;7.47;70.77
35649;BME280;21768;48.562;13.414;2023-04-09T05:16:32;97955.81;;;7.44;71.03
35649;BME280;21768;48.562;13.414;2023-04-09T05:18:57;97953.69;;;7.49;70.78
35649;BME280;21768;48.562;13.414;2023-04-09T05:21:23;97962.09;;;7.49;70.86
35649;BME280;21768;48.562;13.414;2023-04-09T05:23:49;97967.41;;;7.53;70.85
35649;BME280;21768;48.562;13.414;2023-04-09T05:26:14;97970.78;;;7.53;71.03
35649;BME280;21768;48.562;13.414;2023-04-09T05:28:40;97966.66;;;7.54;70.90
35649;BME280;21768;48.562;13.414;2023-04-09T05:31:06;97969.78;;;7.51;70.99
35649;BME280;21768;48.562;13.414;2023-04-09T05:33:37;97967.13;;;7.49;71.06
35649;BME280;21768;48.562;13.414;2023-04-09T05:36:03;97970.78;;;7.53;71.11
35649;BME280;21768;48.562;13.414;2023-04-09T05:38:29;97967.78;;;7.57;70.83
35649;BME280;21768;48.562;13.414;2023-04-09T05:40:55;97968.06;;;7.60;70.89
35649;BME280;21768;48.562;13.414;2023-04-09T05:43:21;97974.22;;;7.64;70.62
35649;BME280;21768;48.562;13.414;2023-04-09T05:45:46;97974.84;;;7.61;70.49
35649;BME280;21768;48.562;13.414;2023-04-09T05:48:16;97972.47;;;7.63;70.40
35649;BME280;21768;48.562;13.414;2023-04-09T05:50:51;97967.56;;;7.64;70.26
35649;BME280;21768;48.562;13.414;2023-04-09T05:53:18;97966.56;;;7.62;70.11
35649;BME280;21768;48.562;13.414;2023-04-09T05:55:44;97975.19;;;7.56;70.15
35649;BME280;21768;48.562;13.414;2023-04-09T05:58:11;97974.66;;;7.49;69.94
35649;BME280;21768;48.562;13.414;2023-04-09T06:00:36;97978.78;;;7.49;70.32
35649;BME280;21768;48.562;13.414;2023-04-09T06:03:03;97979.81;;;7.51;70.23
35649;BME280;21768;48.562;13.414;2023-04-09T06:05:28;97976.06;;;7.56;70.35
35649;BME280;21768;48.562;13.414;2023-04-09T06:07:55;97981.34;;;7.59;70.35
35649;BME280;21768;48.562;13.414;2023-04-09T06:10:23;97976.59;;;7.62;70.43
35649;BME280;21768;48.562;13.414;2023-04-09T06:12:49;97979.50;;;7.67;70.30
35649;BME280;21768;48.562;13.414;2023-04-09T06:15:15;97984.53;;;7.67;70.04
35649;BME280;21768;48.562;13.414;2023-04-09T06:17:41;97983.75;;;7.68;70.00
35649;BME280;21768;48.562;13.414;2023-04-09T06:20:06;97981.25;;;7.68;69.79
35649;BME280;21768;48.562;13.414;2023-04-09T06:22:32;97974.97;;;7.73;69.72
35649;BME280;21768;48.562;13.414;2023-04-09T06:24:58;97974.13;;;7.82;69.55
35649;BME280;21768;48.562;13.414;2023-04-09T06:27:24;97977.44;;;7.92;68.81
35649;BME280;21768;48.562;13.414;2023-04-09T06:29:52;97983.56;;;7.95;69.13
35649;BME280;21768;48.562;13.414;2023-04-09T06:32:19;97980.56;;;7.99;68.92
35649;BME280;21768;48.562;13.414;2023-04-09T06:34:44;97978.31;;;8.02;68.51
35649;BME280;21768;48.562;13.414;2023-04-09T06:37:10;97980.09;;;8.03;68.56
35649;BME280;21768;48.562;13.414;2023-04-09T06:39:36;97986.75;;;8.13;68.74
35649;BME280;21768;48.562;13.414;2023-04-09T06:42:02;97983.97;;;8.20;68.51
35649;BME280;21768;48.562;13.414;2023-04-09T06:44:29;97984.13;;;8.22;68.68
35649;BME280;21768;48.562;13.414;2023-04-09T06:46:55;97989.28;;;8.23;68.51
35649;BME280;21768;48.562;13.414;2023-04-09T06:49:21;97992.66;;;8.24;68.57
35649;BME280;21768;48.562;13.414;2023-04-09T06:51:48;97996.28;;;8.17;68.36
35649;BME280;21768;48.562;13.414;2023-04-09T06:54:13;97989.28;;;8.13;68.66
35649;BME280;21768;48.562;13.414;2023-04-09T06:56:39;97993.56;;;8.14;68.91
35649;BME280;21768;48.562;13.414;2023-04-09T06:59:05;97994.56;;;8.16;68.62
35649;BME280;21768;48.562;13.414;2023-04-09T07:01:30;97991.53;;;8.20;68.67
35649;BME280;21768;48.562;13.414;2023-04-09T07:03:56;97997.94;;;8.27;68.60
35649;BME280;21768;48.562;13.414;2023-04-09T07:06:21;97994.19;;;8.32;68.46
35649;BME280;21768;48.562;13.414;2023-04-09T07:08:47;98003.53;;;8.33;68.65
35649;BME280;21768;48.562;13.414;2023-04-09T07:11:13;98005.16;;;8.32;68.84
35649;BME280;21768;48.562;13.414;2023-04-09T07:13:42;97997.63;;;8.32;68.86
35649;BME280;21768;48.562;13.414;2023-04-09T07:16:07;98003.16;;;8.38;68.70
35649;BME280;21768;48.562;13.414;2023-04-09T07:18:33;98010.94;;;8.41;68.73
35649;BME280;21768;48.562;13.414;2023-04-09T07:20:58;98013.44;;;8.41;68.80
35649;BME280;21768;48.562;13.414;2023-04-09T07:23:24;98013.34;;;8.50;68.76
35649;BME280;21768;48.562;13.414;2023-04-09T07:25:50;98014.97;;;8.60;68.95
35649;BME280;21768;48.562;13.414;2023-04-09T07:28:16;98015.72;;;8.69;68.52
35649;BME280;21768;48.562;13.414;2023-04-09T07:30:41;98023.13;;;8.77;68.43
35649;BME280;21768;48.562;13.414;2023-04-09T07:33:07;98019.75;;;8.87;68.15
35649;BME280;21768;48.562;13.414;2023-04-09T07:35:32;98025.63;;;8.98;67.90
35649;BME280;21768;48.562;13.414;2023-04-09T07:37:59;98031.78;;;9.01;68.00
35649;BME280;21768;48.562;13.414;2023-04-09T07:40:25;98028.53;;;9.02;67.73
35649;BME280;21768;48.562;13.414;2023-04-09T07:42:50;98027.00;;;9.04;67.46
35649;BME280;21768;48.562;13.414;2023-04-09T07:45:17;98024.88;;;9.09;67.44
35649;BME280;21768;48.562;13.414;2023-04-09T07:47:44;98032.78;;;9.13;67.12
35649;BME280;21768;48.562;13.414;2023-04-09T07:50:10;98033.00;;;9.16;67.33
35649;BME280;21768;48.562;13.414;2023-04-09T07:52:36;98030.75;;;9.19;66.89
35649;BME280;21768;48.562;13.414;2023-04-09T07:55:02;98032.75;;;9.34;66.98
35649;BME280;21768;48.562;13.414;2023-04-09T07:57:30;98036.34;;;9.47;67.29
35649;BME280;21768;48.562;13.414;2023-04-09T07:59:56;98044.50;;;9.55;67.15
35649;BME280;21768;48.562;13.414;2023-04-09T08:02:23;98043.00;;;9.57;67.11
35649;BME280;21768;48.562;13.414;2023-04-09T08:04:49;98043.00;;;9.57;67.22
35649;BME280;21768;48.562;13.414;2023-04-09T08:07:14;98039.41;;;9.65;67.46
35649;BME280;21768;48.562;13.414;2023-04-09T08:09:40;98040.91;;;9.73;67.25
35649;BME280;21768;48.562;13.414;2023-04-09T08:12:06;98045.41;;;9.87;67.16
35649;BME280;21768;48.562;13.414;2023-04-09T08:14:33;98046.97;;;9.97;67.04
35649;BME280;21768;48.562;13.414;2023-04-09T08:16:58;98036.25;;;10.00;66.75
35649;BME280;21768;48.562;13.414;2023-04-09T08:19:24;98044.34;;;9.96;66.34
35649;BME280;21768;48.562;13.414;2023-04-09T08:21:50;98053.72;;;9.86;66.55
35649;BME280;21768;48.562;13.414;2023-04-09T08:24:16;98046.91;;;9.85;66.93
35649;BME280;21768;48.562;13.414;2023-04-09T08:26:43;98043.09;;;9.90;66.49
35649;BME280;21768;48.562;13.414;2023-04-09T08:29:09;98038.00;;;10.01;66.47
35649;BME280;21768;48.562;13.414;2023-04-09T08:31:35;98039.25;;;10.06;65.94
35649;BME280;21768;48.562;13.414;2023-04-09T08:34:01;98027.69;;;9.98;65.79
35649;BME280;21768;48.562;13.414;2023-04-09T08:36:27;98031.03;;;10.08;65.95
35649;BME280;21768;48.562;13.414;2023-04-09T08:38:53;98028.06;;;10.24;65.47
35649;BME280;21768;48.562;13.414;2023-04-09T08:41:25;98031.72;;;10.28;64.95
35649;BME280;21768;48.562;13.414;2023-04-09T08:43:54;98040.75;;;10.36;64.58
35649;BME280;21768;48.562;13.414;2023-04-09T08:46:21;98044.59;;;10.42;64.74
35649;BME280;21768;48.562;13.414;2023-04-09T08:48:49;98047.16;;;10.54;65.39
35649;BME280;21768;48.562;13.414;2023-04-09T08:51:19;98041.63;;;10.70;65.04
35649;BME280;21768;48.562;13.414;2023-04-09T08:53:55;98050.66;;;10.78;65.39
35649;BME280;21768;48.562;13.414;2023-04-09T08:56:20;98045.41;;;10.86;65.11
35649;BME280;21768;48.562;13.414;2023-04-09T08:58:47;98050.47;;;10.98;64.33
35649;BME280;21768;48.562;13.414;2023-04-09T09:03:59;98036.78;;;12.49;61.45
35649;BME280;21768;48.562;13.414;2023-04-09T09:06:27;98035.38;;;13.55;59.21
35649;BME280;21768;48.562;13.414;2023-04-09T09:11:29;98039.03;;;14.28;55.72
35649;BME280;21768;48.562;13.414;2023-04-09T09:14:12;98041.66;;;14.02;53.93
35649;BME280;21768;48.562;13.414;2023-04-09T09:16:43;98047.53;;;13.74;55.55
35649;BME280;21768;48.562;13.414;2023-04-09T09:22:00;98047.06;;;13.53;55.93
35649;BME280;21768;48.562;13.414;2023-04-09T09:24:26;98051.25;;;13.40;56.04
35649;BME280;21768;48.562;13.414;2023-04-09T09:26:52;98046.22;;;13.15;56.11
35649;BME280;21768;48.562;13.414;2023-04-09T09:29:21;98047.03;;;12.89;56.00
35649;BME280;21768;48.562;13.414;2023-04-09T09:31:50;98045.41;;;12.65;56.50
35649;BME280;21768;48.562;13.414;2023-04-09T09:34:17;98039.00;;;12.45;56.29
35649;BME280;21768;48.562;13.414;2023-04-09T09:36:44;98044.69;;;12.29;56.70
35649;BME280;21768;48.562;13.414;2023-04-09T09:39:10;98033.31;;;12.11;56.08
35649;BME280;21768;48.562;13.414;2023-04-09T09:41:38;98044.09;;;12.08;57.36
35649;BME280;21768;48.562;13.414;2023-04-09T09:44:05;98042.72;;;12.13;57.63
35649;BME280;21768;48.562;13.414;2023-04-09T09:46:36;98044.97;;;12.09;57.47
35649;BME280;21768;48.562;13.414;2023-04-09T09:49:07;98047.78;;;12.13;57.62
35649;BME280;21768;48.562;13.414;2023-04-09T09:51:35;98044.97;;;12.09;57.65
35649;BME280;21768;48.562;13.414;2023-04-09T09:54:06;98041.03;;;12.01;57.40
35649;BME280;21768;48.562;13.414;2023-04-09T09:56:37;98045.22;;;12.00;57.85
35649;BME280;21768;48.562;13.414;2023-04-09T10:01:39;98033.72;;;12.42;56.23
35649;BME280;21768;48.562;13.414;2023-04-09T10:04:07;98032.06;;;12.42;56.73
35649;BME280;21768;48.562;13.414;2023-04-09T10:06:39;98037.53;;;12.35;56.69
35649;BME280;21768;48.562;13.414;2023-04-09T10:09:09;98029.94;;;12.35;56.87
35649;BME280;21768;48.562;13.414;2023-04-09T10:11:36;98036.75;;;12.61;55.35
35649;BME280;21768;48.562;13.414;2023-04-09T10:14:02;98039.41;;;12.76;55.24
35649;BME280;21768;48.562;13.414;2023-04-09T10:16:29;98039.63;;;12.79;54.78
35649;BME280;21768;48.562;13.414;2023-04-09T10:18:56;98039.53;;;12.90;55.13
35649;BME280;21768;48.562;13.414;2023-04-09T10:24:00;98027.25;;;14.56;51.19
35649;BME280;21768;48.562;13.414;2023-04-09T10:26:35;98033.09;;;15.27;49.37
35649;BME280;21768;48.562;13.414;2023-04-09T10:29:08;98035.00;;;15.46;49.19
35649;BME280;21768;48.562;13.414;2023-04-09T10:31:51;98036.91;;;15.36;49.21
35649;BME280;21768;48.562;13.414;2023-04-09T10:34:22;98033.44;;;15.04;48.93
35649;BME280;21768;48.562;13.414;2023-04-09T10:36:50;98034.88;;;14.71;48.20
35649;BME280;21768;48.562;13.414;2023-04-09T10:39:18;98031.06;;;14.78;48.34
35649;BME280;21768;48.562;13.414;2023-04-09T10:41:45;98021.06;;;14.81;48.14
35649;BME280;21768;48.562;13.414;2023-04-09T10:44:22;98035.78;;;14.44;48.75
35649;BME280;21768;48.562;13.414;2023-04-09T10:46:48;98030.91;;;14.06;48.44
35649;BME280;21768;48.562;13.414;2023-04-09T10:57:16;98032.13;;;13.45;49.17
35649;BME280;21768;48.562;13.414;2023-04-09T10:59:50;98039.84;;;13.33;48.81
35649;BME280;21768;48.562;13.414;2023-04-09T11:05:06;98032.72;;;13.54;48.72
35649;BME280;21768;48.562;13.414;2023-04-09T11:07:40;98019.44;;;13.84;48.26
35649;BME280;21768;48.562;13.414;2023-04-09T11:10:08;98015.78;;;14.35;47.63
35649;BME280;21768;48.562;13.414;2023-04-09T11:12:34;98019.00;;;14.60;46.73
35649;BME280;21768;48.562;13.414;2023-04-09T11:15:00;98019.53;;;16.20;44.55
35649;BME280;21768;48.562;13.414;2023-04-09T11:17:26;98008.47;;;19.03;40.39
35649;BME280;21768;48.562;13.414;2023-04-09T11:19:51;98006.47;;;21.21;37.02
35649;BME280;21768;48.562;13.414;2023-04-09T11:22:17;98000.59;;;22.36;33.63
35649;BME280;21768;48.562;13.414;2023-04-09T11:24:44;97997.44;;;22.76;33.67
35649;BME280;21768;48.562;13.414;2023-04-09T11:27:11;97994.91;;;25.06;30.54
35649;BME280;21768;48.562;13.414;2023-04-09T11:29:37;97992.47;;;27.01;27.89
35649;BME280;21768;48.562;13.414;2023-04-09T11:32:04;97989.50;;;25.99;27.39
35649;BME280;21768;48.562;13.414;2023-04-09T11:34:31;98005.03;;;24.52;28.77
35649;BME280;21768;48.562;13.414;2023-04-09T11:36:57;98007.97;;;22.24;31.11
35649;BME280;21768;48.562;13.414;2023-04-09T11:39:27;98003.72;;;20.67;33.38
35649;BME280;21768;48.562;13.414;2023-04-09T11:41:53;97999.28;;;19.93;35.35
35649;BME280;21768;48.562;13.414;2023-04-09T11:44:21;98004.63;;;19.55;35.11
35649;BME280;21768;48.562;13.414;2023-04-09T11:46:47;98005.00;;;19.45;36.33
35649;BME280;21768;48.562;13.414;2023-04-09T11:49:14;98010.69;;;18.57;35.27
35649;BME280;21768;48.562;13.414;2023-04-09T11:51:40;98016.94;;;17.35;37.17
35649;BME280;21768;48.562;13.414;2023-04-09T11:54:07;98015.25;;;16.51;38.82
35649;BME280;21768;48.562;13.414;2023-04-09T11:56:34;98006.97;;;16.39;40.39
35649;BME280;21768;48.562;13.414;2023-04-09T11:59:01;98010.09;;;16.50;39.70
35649;BME280;21768;48.562;13.414;2023-04-09T12:01:33;98010.81;;;16.47;39.94
35649;BME280;21768;48.562;13.414;2023-04-09T12:04:00;98007.84;;;16.40;39.14
35649;BME280;21768;48.562;13.414;2023-04-09T12:06:26;98013.75;;;16.22;39.82
35649;BME280;21768;48.562;13.414;2023-04-09T12:08:54;98005.06;;;16.03;38.95
35649;BME280;21768;48.562;13.414;2023-04-09T12:11:26;98008.06;;;15.95;38.67
35649;BME280;21768;48.562;13.414;2023-04-09T12:14:02;98009.56;;;15.92;39.05
35649;BME280;21768;48.562;13.414;2023-04-09T12:16:34;98003.63;;;16.08;38.61
35649;BME280;21768;48.562;13.414;2023-04-09T12:19:05;98009.97;;;16.16;39.53
35649;BME280;21768;48.562;13.414;2023-04-09T12:24:16;98006.97;;;16.07;39.42
35649;BME280;21768;48.562;13.414;2023-04-09T12:26:45;98001.72;;;16.04;40.08
35649;BME280;21768;48.562;13.414;2023-04-09T12:29:13;98000.75;;;16.02;39.61
35649;BME280;21768;48.562;13.414;2023-04-09T12:31:38;98008.16;;;16.13;40.30
35649;BME280;21768;48.562;13.414;2023-04-09T12:34:04;98008.47;;;16.19;40.27
35649;BME280;21768;48.562;13.414;2023-04-09T12:36:29;98007.69;;;16.04;39.76
35649;BME280;21768;48.562;13.414;2023-04-09T12:38:56;98010.59;;;16.12;39.18
35649;BME280;21768;48.562;13.414;2023-04-09T12:41:22;98006.41;;;16.45;38.21
35649;BME280;21768;48.562;13.414;2023-04-09T12:43:47;98002.97;;;16.60;38.41
35649;BME280;21768;48.562;13.414;2023-04-09T12:46:13;97998.88;;;16.79;37.91
35649;BME280;21768;48.562;13.414;2023-04-09T12:48:39;98003.16;;;16.63;38.05
35649;BME280;21768;48.562;13.414;2023-04-09T12:51:04;98009.84;;;16.45;38.03
35649;BME280;21768;48.562;13.414;2023-04-09T12:53:31;98006.66;;;16.49;38.56
35649;BME280;21768;48.562;13.414;2023-04-09T12:55:57;97996.63;;;16.69;39.28
35649;BME280;21768;48.562;13.414;2023-04-09T12:58:22;97997.41;;;16.84;37.13
35649;BME280;21768;48.562;13.414;2023-04-09T13:00:48;98000.03;;;16.85;38.38
35649;BME280;21768;48.562;13.414;2023-04-09T13:03:14;97994.69;;;16.97;37.73
35649;BME280;21768;48.562;13.414;2023-04-09T13:05:42;97999.22;;;16.86;37.82
35649;BME280;21768;48.562;13.414;2023-04-09T13:08:07;98002.38;;;16.64;38.39
35649;BME280;21768;48.562;13.414;2023-04-09T13:10:33;98000.13;;;16.38;38.12
35649;BME280;21768;48.562;13.414;2023-04-09T13:12:59;97995.94;;;15.91;38.69
35649;BME280;21768;48.562;13.414;2023-04-09T13:15:25;97997.09;;;15.51;38.82
35649;BME280;21768;48.562;13.414;2023-04-09T13:17:52;98007.66;;;15.13;40.94
35649;BME280;21768;48.562;13.414;2023-04-09T13:20:17;98002.22;;;14.77;41.56
35649;BME280;21768;48.562;13.414;2023-04-09T13:22:43;98003.06;;;14.48;42.45
35649;BME280;21768;48.562;13.414;2023-04-09T13:25:13;98009.38;;;14.27;43.06
35649;BME280;21768;48.562;13.414;2023-04-09T13:27:39;98002.56;;;14.13;43.27
35649;BME280;21768;48.562;13.414;2023-04-09T13:30:06;97999.69;;;14.07;43.40
35649;BME280;21768;48.562;13.414;2023-04-09T13:32:32;98007.47;;;14.10;43.39
35649;BME280;21768;48.562;13.414;2023-04-09T13:34:57;98000.75;;;14.10;43.25